createdAt,value
2023-05-07T00:00:50.742Z,12.44
2023-05-07T00:03:20.168Z,12.36
2023-05-07T00:05:49.117Z,12.33
2023-05-07T00:08:17.173Z,12.23
2023-05-07T00:10:45.260Z,12.31
2023-05-07T00:13:13.348Z,12.25
2023-05-07T00:15:43.782Z,12.28
2023-05-07T00:18:11.718Z,12.27
2023-05-07T00:20:41.144Z,12.16
2023-05-07T00:23:10.196Z,12.23
2023-05-07T00:25:38.134Z,12.23
2023-05-07T00:28:06.327Z,12.20
2023-05-07T00:30:34.635Z,12.22
2023-05-07T00:33:02.650Z,12.17
2023-05-07T00:35:31.494Z,12.13
2023-05-07T00:38:01.145Z,12.11
2023-05-07T00:40:29.261Z,12.07
2023-05-07T00:42:59.271Z,12.07
2023-05-07T00:45:32.198Z,11.94
2023-05-07T00:48:02.310Z,11.99
2023-05-07T00:50:31.707Z,11.95
2023-05-07T00:53:01.876Z,11.91
2023-05-07T00:55:33.133Z,11.97
2023-05-07T00:58:01.655Z,11.87
2023-05-07T01:00:29.837Z,11.87
2023-05-07T01:02:58.667Z,11.77
2023-05-07T01:05:28.772Z,11.77
2023-05-07T01:07:58.810Z,11.71
2023-05-07T01:10:28.851Z,11.69
2023-05-07T01:12:57.118Z,11.67
2023-05-07T01:15:25.388Z,11.60
2023-05-07T01:17:53.609Z,11.59
2023-05-07T01:20:21.913Z,11.64
2023-05-07T01:22:51.580Z,11.62
2023-05-07T01:25:20.633Z,11.69
2023-05-07T01:27:48.774Z,11.56
2023-05-07T01:30:18.356Z,11.64
2023-05-07T01:32:53.152Z,11.58
2023-05-07T01:35:24.206Z,11.51
2023-05-07T01:37:56.009Z,11.51
2023-05-07T01:40:27.683Z,11.40
2023-05-07T01:42:56.756Z,11.26
2023-05-07T01:45:25.873Z,11.28
2023-05-07T01:47:55.182Z,11.26
2023-05-07T01:50:23.310Z,11.20
2023-05-07T01:52:54.206Z,11.11
2023-05-07T01:55:22.206Z,11.16
2023-05-07T01:57:50.157Z,11.13
2023-05-07T02:00:20.012Z,11.17
2023-05-07T02:02:48.343Z,11.12
2023-05-07T02:05:16.281Z,11.14
2023-05-07T02:07:44.309Z,11.08
2023-05-07T02:10:14.173Z,11.18
2023-05-07T02:12:42.188Z,11.03
2023-05-07T02:15:11.590Z,11.02
2023-05-07T02:18:00.517Z,10.90
2023-05-07T02:20:28.628Z,10.97
2023-05-07T02:22:56.723Z,10.98
2023-05-07T02:25:26.067Z,10.98
2023-05-07T02:27:54.424Z,10.90
2023-05-07T02:30:23.282Z,10.79
2023-05-07T02:32:51.331Z,10.92
2023-05-07T02:35:19.758Z,10.79
2023-05-07T02:37:47.823Z,10.86
2023-05-07T02:40:16.157Z,10.79
2023-05-07T02:42:45.621Z,10.78
2023-05-07T02:45:13.803Z,10.79
2023-05-07T02:47:41.806Z,10.73
2023-05-07T02:50:10.266Z,10.74
2023-05-07T02:52:39.258Z,10.69
2023-05-07T02:55:09.544Z,10.69
2023-05-07T02:57:37.691Z,10.67
2023-05-07T03:00:18.807Z,10.65
2023-05-07T03:02:46.973Z,10.64
2023-05-07T03:05:15.504Z,10.61
2023-05-07T03:07:50.606Z,10.52
2023-05-07T03:10:26.744Z,10.52
2023-05-07T03:12:55.668Z,10.55
2023-05-07T03:15:28.815Z,10.60
2023-05-07T03:18:05.847Z,10.59
2023-05-07T03:20:42.963Z,10.55
2023-05-07T03:23:10.910Z,10.54
2023-05-07T03:25:41.942Z,10.54
2023-05-07T03:28:16.804Z,10.48
2023-05-07T03:30:52.047Z,10.46
2023-05-07T03:33:23.919Z,10.43
2023-05-07T03:35:52.050Z,10.55
2023-05-07T03:38:19.981Z,10.51
2023-05-07T03:40:48.002Z,10.51
2023-05-07T03:43:16.210Z,10.54
2023-05-07T03:45:44.620Z,10.37
2023-05-07T03:48:14.020Z,10.44
2023-05-07T03:50:42.305Z,10.48
2023-05-07T03:53:16.455Z,10.48
2023-05-07T03:55:44.726Z,10.48
2023-05-07T03:58:12.776Z,10.35
2023-05-07T04:00:41.991Z,10.45
2023-05-07T04:03:10.390Z,10.48
2023-05-07T04:05:39.858Z,10.42
2023-05-07T04:08:07.868Z,10.40
2023-05-07T04:10:35.752Z,10.48
2023-05-07T04:13:04.182Z,10.50
2023-05-07T04:15:32.246Z,10.42
2023-05-07T04:18:00.401Z,10.30
2023-05-07T04:20:28.398Z,10.45
2023-05-07T04:22:57.695Z,10.41
2023-05-07T04:25:27.433Z,10.41
2023-05-07T04:27:57.391Z,10.43
2023-05-07T04:30:28.965Z,10.45
2023-05-07T04:32:58.100Z,10.35
2023-05-07T04:35:27.498Z,10.40
2023-05-07T04:37:57.100Z,10.36
2023-05-07T04:40:26.209Z,10.28
2023-05-07T04:42:55.206Z,10.38
2023-05-07T04:45:23.671Z,10.28
2023-05-07T04:47:52.076Z,10.39
2023-05-07T04:50:21.047Z,10.28
2023-05-07T04:52:49.056Z,10.36
2023-05-07T04:55:18.533Z,10.36
2023-05-07T04:57:46.453Z,10.32
2023-05-07T05:00:15.650Z,10.30
2023-05-07T05:02:43.806Z,10.25
2023-05-07T05:05:11.860Z,10.39
2023-05-07T05:07:39.794Z,10.23
2023-05-07T05:10:08.842Z,10.38
2023-05-07T05:12:40.167Z,10.48
2023-05-07T05:15:09.727Z,10.38
2023-05-07T05:17:38.013Z,10.42
2023-05-07T05:20:07.934Z,10.44
2023-05-07T05:22:36.308Z,10.42
2023-05-07T05:25:06.568Z,10.47
2023-05-07T05:27:34.876Z,10.54
2023-05-07T05:30:05.358Z,10.43
2023-05-07T05:32:34.760Z,10.55
2023-05-07T05:35:02.909Z,10.51
2023-05-07T05:37:31.270Z,10.49
2023-05-07T05:39:59.759Z,10.52
2023-05-07T05:42:28.035Z,10.53
2023-05-07T05:44:57.502Z,10.50
2023-05-07T05:47:27.953Z,10.60
2023-05-07T05:49:56.934Z,10.65
2023-05-07T05:52:25.333Z,10.67
2023-05-07T05:54:56.378Z,10.67
2023-05-07T05:57:25.987Z,10.70
2023-05-07T05:59:55.087Z,10.80
2023-05-07T06:02:23.135Z,10.75
2023-05-07T06:04:52.930Z,10.78
2023-05-07T06:07:20.877Z,10.79
2023-05-07T06:09:48.793Z,10.84
2023-05-07T06:12:16.714Z,10.89
2023-05-07T06:14:45.301Z,10.95
2023-05-07T06:17:13.383Z,10.88
2023-05-07T06:19:41.303Z,10.92
2023-05-07T06:22:11.930Z,10.91
2023-05-07T06:24:39.915Z,10.94
2023-05-07T06:27:09.403Z,11.01
2023-05-07T06:29:37.690Z,11.11
2023-05-07T06:32:15.766Z,11.01
2023-05-07T06:34:43.863Z,11.01
2023-05-07T06:37:13.363Z,11.03
2023-05-07T06:39:41.471Z,11.09
2023-05-07T06:42:10.581Z,11.17
2023-05-07T06:44:40.056Z,11.21
2023-05-07T06:47:09.951Z,11.29
2023-05-07T06:49:40.697Z,11.45
2023-05-07T06:52:09.883Z,11.55
2023-05-07T06:54:39.347Z,11.35
2023-05-07T06:57:08.171Z,11.39
2023-05-07T06:59:36.579Z,11.53
2023-05-07T07:02:04.621Z,11.68
2023-05-07T07:04:32.840Z,11.61
2023-05-07T07:07:01.000Z,11.60
2023-05-07T07:09:29.087Z,11.55
2023-05-07T07:11:58.621Z,11.77
2023-05-07T07:14:26.842Z,11.78
2023-05-07T07:16:55.961Z,11.64
2023-05-07T07:19:24.003Z,11.81
2023-05-07T07:21:52.323Z,11.87
2023-05-07T07:24:22.482Z,12.01
2023-05-07T07:26:50.796Z,11.98
2023-05-07T07:29:20.800Z,12.03
2023-05-07T07:31:51.320Z,11.96
2023-05-07T07:34:19.620Z,11.98
2023-05-07T07:36:47.565Z,12.23
2023-05-07T07:39:15.744Z,12.50
2023-05-07T07:41:44.257Z,12.56
2023-05-07T07:44:15.921Z,12.40
2023-05-07T07:46:46.174Z,12.28
2023-05-07T07:49:14.888Z,12.13
2023-05-07T07:51:43.919Z,12.12
2023-05-07T07:54:25.806Z,12.33
2023-05-07T07:57:06.358Z,12.43
2023-05-07T07:59:40.725Z,12.72
2023-05-07T08:02:29.064Z,12.75
2023-05-07T08:04:58.411Z,12.86
2023-05-07T08:11:22.328Z,13.23
2023-05-07T08:13:51.404Z,12.92
2023-05-07T08:16:26.615Z,13.19
2023-05-07T08:18:56.097Z,13.56
2023-05-07T08:21:24.235Z,13.81
2023-05-07T08:23:54.267Z,13.68
2023-05-07T08:26:22.543Z,13.75
2023-05-07T08:28:53.564Z,13.93
2023-05-07T08:31:21.627Z,14.50
2023-05-07T08:33:51.059Z,13.93
2023-05-07T08:36:21.019Z,13.96
2023-05-07T08:38:48.937Z,14.12
2023-05-07T08:41:18.941Z,14.46
2023-05-07T08:43:50.044Z,14.68
2023-05-07T08:46:23.779Z,14.35
2023-05-07T08:48:52.918Z,13.87
2023-05-07T08:51:23.929Z,13.71
2023-05-07T08:53:56.731Z,13.53
2023-05-07T08:56:24.784Z,13.65
2023-05-07T08:58:52.770Z,13.80
2023-05-07T09:01:21.863Z,13.99
2023-05-07T09:03:50.775Z,14.85
2023-05-07T09:06:19.021Z,15.63
2023-05-07T09:08:53.029Z,15.31
2023-05-07T09:11:23.599Z,15.74
2023-05-07T09:13:56.722Z,15.88
2023-05-07T09:16:25.604Z,15.34
2023-05-07T09:18:55.009Z,14.95
2023-05-07T09:21:30.963Z,15.29
2023-05-07T09:24:00.338Z,15.84
2023-05-07T09:26:29.358Z,16.07
2023-05-07T09:29:01.704Z,16.23
2023-05-07T09:31:32.228Z,16.28
2023-05-07T09:34:00.277Z,17.13
2023-05-07T09:36:29.326Z,17.60
2023-05-07T09:38:57.674Z,16.83
2023-05-07T09:41:27.234Z,17.68
2023-05-07T09:43:56.479Z,17.03
2023-05-07T09:46:30.152Z,17.21
2023-05-07T09:49:12.294Z,17.20
2023-05-07T09:51:45.255Z,16.25
2023-05-07T09:54:14.064Z,15.91
2023-05-07T09:56:45.514Z,16.32
2023-05-07T09:59:16.539Z,15.41
2023-05-07T10:01:45.885Z,15.43
2023-05-07T10:04:14.384Z,15.19
2023-05-07T10:06:43.808Z,16.09
2023-05-07T10:09:13.282Z,16.31
2023-05-07T10:11:44.385Z,17.48
2023-05-07T10:14:12.892Z,18.14
2023-05-07T10:16:41.199Z,18.70
2023-05-07T10:19:12.123Z,19.50
2023-05-07T10:21:41.506Z,20.23
2023-05-07T10:24:16.156Z,19.90
2023-05-07T10:26:51.901Z,19.05
2023-05-07T10:29:27.216Z,19.49
2023-05-07T10:32:02.223Z,19.59
2023-05-07T10:34:34.942Z,19.32
2023-05-07T10:37:26.637Z,20.61
2023-05-07T10:39:54.941Z,20.40
2023-05-07T10:42:24.641Z,20.09
2023-05-07T10:44:53.778Z,20.16
2023-05-07T10:47:22.847Z,19.08
2023-05-07T10:50:25.548Z,20.33
2023-05-07T10:53:29.917Z,20.80
2023-05-07T10:56:31.708Z,20.95
2023-05-07T10:59:41.833Z,21.51
2023-05-07T11:02:12.422Z,20.23
2023-05-07T11:04:42.869Z,20.33
2023-05-07T11:07:31.803Z,19.80
2023-05-07T11:10:07.224Z,20.49
2023-05-07T11:12:52.842Z,20.80
2023-05-07T11:15:47.094Z,20.94
2023-05-07T11:18:18.409Z,20.08
2023-05-07T11:20:58.776Z,19.73
2023-05-07T11:24:09.977Z,19.30
2023-05-07T11:26:49.071Z,19.80
2023-05-07T11:29:21.579Z,20.82
2023-05-07T11:31:56.212Z,20.28
2023-05-07T11:34:26.835Z,21.25
2023-05-07T11:36:55.542Z,21.37
2023-05-07T11:39:29.902Z,19.93
2023-05-07T11:41:59.420Z,20.54
2023-05-07T11:44:27.571Z,20.50
2023-05-07T11:46:57.046Z,20.99
2023-05-07T11:49:28.875Z,20.61
2023-05-07T11:51:56.945Z,20.07
2023-05-07T11:54:24.932Z,20.85
2023-05-07T11:56:52.997Z,21.48
2023-05-07T11:59:23.615Z,21.84
2023-05-07T12:01:52.045Z,21.56
2023-05-07T12:04:24.897Z,21.84
2023-05-07T12:06:59.686Z,22.98
2023-05-07T12:09:28.241Z,23.66
2023-05-07T12:11:57.546Z,22.84
2023-05-07T12:14:30.026Z,20.96
2023-05-07T12:17:03.689Z,21.36
2023-05-07T12:19:36.382Z,21.26
2023-05-07T12:22:05.872Z,20.09
2023-05-07T12:24:59.150Z,20.40
2023-05-07T12:27:32.710Z,20.90
2023-05-07T12:30:01.135Z,20.90
2023-05-07T12:32:38.029Z,19.91
2023-05-07T12:35:46.160Z,19.87
2023-05-07T12:38:39.423Z,20.66
2023-05-07T12:42:06.802Z,21.64
2023-05-07T12:44:53.348Z,20.98
2023-05-07T12:47:52.424Z,22.14
2023-05-07T12:50:36.448Z,21.70
2023-05-07T12:57:15.006Z,21.98
2023-05-07T12:59:45.235Z,23.21
2023-05-07T13:02:35.223Z,23.28
2023-05-07T13:05:08.141Z,22.75
2023-05-07T13:07:40.709Z,23.07
2023-05-07T13:10:09.994Z,22.13
2023-05-07T13:12:44.805Z,20.98
2023-05-07T13:15:14.172Z,21.74
2023-05-07T13:17:43.059Z,21.23
2023-05-07T13:20:13.723Z,21.58
2023-05-07T13:22:42.013Z,21.41
2023-05-07T13:25:11.966Z,21.90
2023-05-07T13:27:44.060Z,21.87
2023-05-07T13:30:12.823Z,21.62
2023-05-07T13:32:43.285Z,20.97
2023-05-07T13:35:12.127Z,20.42
2023-05-07T13:37:40.496Z,20.64
2023-05-07T13:40:11.794Z,21.64
2023-05-07T13:42:43.751Z,20.99
2023-05-07T13:45:15.124Z,21.35
2023-05-07T13:47:43.229Z,21.62
2023-05-07T13:50:14.664Z,22.57
2023-05-07T13:52:46.994Z,22.70
2023-05-07T13:55:15.484Z,23.92
2023-05-07T13:57:45.068Z,23.12
2023-05-07T14:00:17.587Z,22.50
2023-05-07T14:02:45.919Z,23.47
2023-05-07T14:05:14.596Z,24.29
2023-05-07T14:07:42.622Z,25.62
2023-05-07T14:10:12.529Z,25.22
2023-05-07T14:12:41.752Z,24.14
2023-05-07T14:15:40.271Z,22.33
2023-05-07T14:18:08.299Z,22.60
2023-05-07T14:20:38.633Z,23.65
2023-05-07T14:23:06.624Z,23.64
2023-05-07T14:25:34.710Z,24.47
2023-05-07T14:28:02.830Z,25.13
2023-05-07T14:30:32.472Z,23.87
2023-05-07T14:33:00.735Z,22.27
2023-05-07T14:35:28.783Z,21.35
2023-05-07T14:37:56.669Z,21.76
2023-05-07T14:40:25.138Z,20.98
2023-05-07T14:42:58.328Z,21.06
2023-05-07T14:45:26.662Z,21.24
2023-05-07T14:47:57.862Z,20.41
2023-05-07T14:50:26.288Z,20.26
2023-05-07T14:52:54.513Z,20.73
2023-05-07T14:55:22.729Z,20.75
2023-05-07T14:57:50.928Z,20.55
2023-05-07T15:00:19.434Z,21.10
2023-05-07T15:02:47.452Z,21.25
2023-05-07T15:05:17.139Z,21.29
2023-05-07T15:07:45.740Z,21.61
2023-05-07T15:10:14.444Z,21.49
2023-05-07T15:12:42.403Z,21.37
2023-05-07T15:15:41.688Z,21.99
2023-05-07T15:18:09.827Z,21.89
2023-05-07T15:20:39.744Z,20.78
2023-05-07T15:23:10.860Z,21.16
2023-05-07T15:25:38.973Z,20.85
2023-05-07T15:28:09.656Z,20.46
2023-05-07T15:30:37.756Z,20.58
2023-05-07T15:33:15.707Z,20.29
2023-05-07T15:35:46.245Z,19.91
2023-05-07T15:38:15.021Z,20.10
2023-05-07T15:40:44.444Z,21.32
2023-05-07T15:43:13.535Z,22.38
2023-05-07T15:45:43.055Z,21.96
2023-05-07T15:48:12.013Z,21.78
2023-05-07T15:50:40.148Z,20.38
2023-05-07T15:53:12.821Z,20.00
2023-05-07T15:55:43.153Z,19.91
2023-05-07T15:58:13.080Z,20.13
2023-05-07T16:00:42.199Z,19.80
2023-05-07T16:03:10.170Z,20.11
2023-05-07T16:05:38.418Z,20.10
2023-05-07T16:08:09.747Z,20.01
2023-05-07T16:10:39.147Z,19.47
2023-05-07T16:13:08.094Z,19.92
2023-05-07T16:15:36.295Z,20.25
2023-05-07T16:18:05.384Z,20.37
2023-05-07T16:20:33.424Z,20.40
2023-05-07T16:23:01.361Z,20.93
2023-05-07T16:25:29.272Z,21.42
2023-05-07T16:28:03.427Z,22.24
2023-05-07T16:30:34.691Z,23.14
2023-05-07T16:33:14.530Z,23.06
2023-05-07T16:35:44.786Z,20.68
2023-05-07T16:38:13.247Z,20.47
2023-05-07T16:40:43.248Z,20.37
2023-05-07T16:43:12.471Z,21.21
2023-05-07T16:45:40.833Z,20.93
2023-05-07T16:48:11.005Z,21.06
2023-05-07T16:50:39.895Z,21.12
2023-05-07T16:53:08.966Z,21.50
2023-05-07T16:55:51.345Z,20.22
2023-05-07T16:58:20.864Z,21.02
2023-05-07T17:00:51.581Z,21.05
2023-05-07T17:03:19.838Z,20.84
2023-05-07T17:05:50.171Z,21.55
2023-05-07T17:08:18.211Z,21.85
2023-05-07T17:10:46.883Z,21.47
2023-05-07T17:13:16.018Z,20.49
2023-05-07T17:15:47.931Z,20.19
2023-05-07T17:21:09.186Z,20.05
2023-05-07T17:23:40.816Z,20.28
2023-05-07T17:26:16.025Z,19.82
2023-05-07T17:28:56.249Z,20.07
2023-05-07T17:31:46.372Z,20.28
2023-05-07T17:34:24.504Z,20.02
2023-05-07T17:37:15.435Z,19.95
2023-05-07T17:39:46.724Z,19.75
2023-05-07T17:42:26.828Z,20.29
2023-05-07T17:44:56.024Z,19.84
2023-05-07T17:47:25.670Z,19.16
2023-05-07T17:49:55.653Z,19.67
2023-05-07T17:52:24.515Z,19.38
2023-05-07T17:54:54.351Z,18.89
2023-05-07T17:57:22.677Z,18.59
2023-05-07T17:59:50.630Z,18.39
2023-05-07T18:02:19.384Z,18.50
2023-05-07T18:04:51.089Z,18.28
2023-05-07T18:07:18.952Z,17.69
2023-05-07T18:09:47.671Z,17.72
2023-05-07T18:12:15.692Z,17.44
2023-05-07T18:14:46.999Z,17.15
2023-05-07T18:17:17.841Z,16.89
2023-05-07T18:19:46.029Z,16.58
2023-05-07T18:22:20.055Z,16.30
2023-05-07T18:24:51.002Z,16.43
2023-05-07T18:27:22.942Z,16.30
2023-05-07T18:29:52.489Z,16.22
2023-05-07T18:32:22.636Z,16.12
2023-05-07T18:34:56.449Z,16.07
2023-05-07T18:37:27.114Z,15.93
2023-05-07T18:40:03.949Z,15.85
2023-05-07T18:42:36.281Z,15.83
2023-05-07T18:45:05.873Z,15.79
2023-05-07T18:47:36.768Z,15.70
2023-05-07T18:50:07.474Z,15.57
2023-05-07T18:52:37.945Z,15.61
2023-05-07T18:55:11.908Z,15.55
2023-05-07T18:57:40.095Z,15.41
2023-05-07T19:00:11.017Z,15.35
2023-05-07T19:02:41.838Z,15.22
2023-05-07T19:05:18.504Z,15.09
2023-05-07T19:07:48.804Z,15.08
2023-05-07T19:10:17.402Z,15.03
2023-05-07T19:12:55.421Z,14.94
2023-05-07T19:15:23.754Z,14.85
2023-05-07T19:17:51.875Z,14.90
2023-05-07T19:20:20.341Z,14.77
2023-05-07T19:22:49.710Z,14.72
2023-05-07T19:25:18.242Z,14.67
2023-05-07T19:27:51.321Z,14.75
2023-05-07T19:30:20.029Z,14.69
2023-05-07T19:32:49.356Z,14.50
2023-05-07T19:35:17.631Z,14.41
2023-05-07T19:37:46.326Z,14.31
2023-05-07T19:40:18.898Z,14.29
2023-05-07T19:42:47.204Z,14.35
2023-05-07T19:45:17.028Z,14.28
2023-05-07T19:47:46.666Z,14.26
2023-05-07T19:50:16.252Z,14.22
2023-05-07T19:52:45.577Z,14.11
2023-05-07T19:55:15.468Z,14.01
2023-05-07T19:57:50.082Z,14.03
2023-05-07T20:00:18.555Z,13.95
2023-05-07T20:02:48.817Z,14.05
2023-05-07T20:05:22.497Z,13.93
2023-05-07T20:08:02.565Z,13.95
2023-05-07T20:10:31.983Z,13.91
2023-05-07T20:13:00.966Z,13.93
2023-05-07T20:15:31.269Z,13.91
2023-05-07T20:18:01.303Z,13.85
2023-05-07T20:20:29.293Z,13.91
2023-05-07T20:22:57.424Z,13.76
2023-05-07T20:25:28.313Z,13.73
2023-05-07T20:27:59.382Z,13.67
2023-05-07T20:30:28.214Z,13.56
2023-05-07T20:32:56.470Z,13.41
2023-05-07T20:35:24.853Z,13.40
2023-05-07T20:37:52.939Z,13.14
2023-05-07T20:40:21.226Z,13.08
2023-05-07T20:42:51.074Z,13.16
2023-05-07T20:45:20.802Z,13.26
2023-05-07T20:47:49.014Z,13.26
2023-05-07T20:50:19.061Z,13.18
2023-05-07T20:52:47.729Z,13.16
2023-05-07T20:55:18.077Z,13.17
2023-05-07T20:57:46.239Z,13.22
2023-05-07T21:00:31.883Z,13.28
2023-05-07T21:02:59.814Z,13.19
2023-05-07T21:05:30.461Z,13.22
2023-05-07T21:08:00.948Z,13.17
2023-05-07T21:10:30.047Z,13.10
2023-05-07T21:12:58.207Z,13.05
2023-05-07T21:15:30.140Z,13.09
2023-05-07T21:17:59.838Z,13.00
2023-05-07T21:20:51.389Z,12.97
2023-05-07T21:23:19.645Z,12.97
2023-05-07T21:25:48.333Z,12.86
2023-05-07T21:28:16.732Z,13.00
2023-05-07T21:30:44.615Z,12.97
2023-05-07T21:33:14.989Z,12.89
2023-05-07T21:35:43.365Z,12.93
2023-05-07T21:38:35.389Z,12.73
2023-05-07T21:41:03.483Z,12.61
2023-05-07T21:43:31.448Z,12.78
2023-05-07T21:46:00.698Z,12.65
2023-05-07T21:48:30.386Z,12.53
2023-05-07T21:51:02.928Z,12.52
2023-05-07T21:53:31.046Z,12.53
2023-05-07T21:56:00.148Z,12.31
2023-05-07T21:58:28.384Z,12.30
2023-05-07T22:00:56.331Z,12.05
2023-05-07T22:03:24.729Z,12.16
2023-05-07T22:05:54.265Z,12.08
2023-05-07T22:08:24.496Z,12.00
2023-05-07T22:10:52.417Z,12.08
2023-05-07T22:13:20.757Z,12.14
2023-05-07T22:15:57.604Z,12.10
2023-05-07T22:18:29.057Z,12.20
2023-05-07T22:20:58.735Z,12.20
2023-05-07T22:23:27.471Z,12.33
2023-05-07T22:26:00.746Z,12.17
2023-05-07T22:28:31.181Z,12.09
2023-05-07T22:31:07.954Z,12.00
2023-05-07T22:33:37.837Z,12.25
2023-05-07T22:36:31.892Z,12.33
2023-05-07T22:39:14.115Z,12.35
2023-05-07T22:42:36.909Z,12.38
2023-05-07T22:45:07.804Z,12.27
2023-05-07T22:47:37.649Z,12.31
2023-05-07T22:50:07.740Z,12.40
2023-05-07T22:52:37.735Z,12.40
2023-05-07T22:55:10.692Z,12.38
2023-05-07T22:57:39.768Z,12.36
2023-05-07T23:00:12.993Z,12.35
2023-05-07T23:02:41.331Z,12.34
2023-05-07T23:05:09.615Z,12.36
2023-05-07T23:07:41.252Z,12.33
2023-05-07T23:10:12.677Z,12.33
2023-05-07T23:12:41.401Z,12.32
2023-05-07T23:15:11.430Z,12.29
2023-05-07T23:17:39.372Z,12.29
2023-05-07T23:20:08.746Z,12.27
2023-05-07T23:22:41.788Z,12.23
2023-05-07T23:25:10.454Z,12.22
2023-05-07T23:27:39.121Z,12.24
2023-05-07T23:30:09.289Z,12.19
2023-05-07T23:32:37.838Z,12.19
2023-05-07T23:35:06.770Z,12.14
2023-05-07T23:37:35.070Z,12.14
2023-05-07T23:40:08.617Z,12.10
2023-05-07T23:42:57.813Z,11.95
2023-05-07T23:45:25.974Z,12.01
2023-05-07T23:47:53.977Z,11.87
2023-05-07T23:50:22.522Z,11.84
2023-05-07T23:52:50.467Z,11.81
2023-05-07T23:55:21.288Z,11.87
2023-05-07T23:57:49.204Z,11.83
